sensor_id;sensor_type;location;lat;lon;timestamp;temperature;humidity
4677;DHT22;2352;48.180;11.478;2023-07-13T00:02:19;22.20;99.90
4677;DHT22;2352;48.180;11.478;2023-07-13T00:05:23;21.50;99.90
4677;DHT22;2352;48.180;11.478;2023-07-13T00:08:26;22.30;99.90
4677;DHT22;2352;48.180;11.478;2023-07-13T00:11:30;22.30;99.90
4677;DHT22;2352;48.180;11.478;2023-07-13T00:14:34;22.20;99.90
4677;DHT22;2352;48.180;11.478;2023-07-13T00:17:39;22.30;99.90
4677;DHT22;2352;48.180;11.478;2023-07-13T00:20:42;22.20;99.90
4677;DHT22;2352;48.180;11.478;2023-07-13T00:23:45;22.20;99.90
4677;DHT22;2352;48.180;11.478;2023-07-13T00:26:48;22.20;99.90
4677;DHT22;2352;48.180;11.478;2023-07-13T00:29:51;22.20;99.90
4677;DHT22;2352;48.180;11.478;2023-07-13T00:32:55;22.20;99.90
4677;DHT22;2352;48.180;11.478;2023-07-13T00:36:19;22.20;99.90
4677;DHT22;2352;48.180;11.478;2023-07-13T00:39:22;22.30;99.90
4677;DHT22;2352;48.180;11.478;2023-07-13T00:42:26;22.30;99.90
4677;DHT22;2352;48.180;11.478;2023-07-13T00:49:15;22.30;99.90
4677;DHT22;2352;48.180;11.478;2023-07-13T00:52:22;22.30;99.90
4677;DHT22;2352;48.180;11.478;2023-07-13T00:55:26;22.30;99.90
4677;DHT22;2352;48.180;11.478;2023-07-13T00:58:29;22.20;99.90
4677;DHT22;2352;48.180;11.478;2023-07-13T01:01:33;22.20;99.90
4677;DHT22;2352;48.180;11.478;2023-07-13T01:04:37;22.20;99.90
4677;DHT22;2352;48.180;11.478;2023-07-13T01:07:41;22.20;99.90
4677;DHT22;2352;48.180;11.478;2023-07-13T01:10:51;22.20;99.90
4677;DHT22;2352;48.180;11.478;2023-07-13T01:13:54;22.20;99.90
4677;DHT22;2352;48.180;11.478;2023-07-13T01:16:58;22.20;99.90
4677;DHT22;2352;48.180;11.478;2023-07-13T01:20:04;22.20;99.90
4677;DHT22;2352;48.180;11.478;2023-07-13T01:23:11;22.20;99.90
4677;DHT22;2352;48.180;11.478;2023-07-13T01:26:15;22.20;99.90
4677;DHT22;2352;48.180;11.478;2023-07-13T01:29:18;22.20;99.90
4677;DHT22;2352;48.180;11.478;2023-07-13T01:32:24;22.10;99.90
4677;DHT22;2352;48.180;11.478;2023-07-13T01:35:27;22.10;99.90
4677;DHT22;2352;48.180;11.478;2023-07-13T01:38:33;22.10;99.90
4677;DHT22;2352;48.180;11.478;2023-07-13T01:41:36;22.10;99.90
4677;DHT22;2352;48.180;11.478;2023-07-13T01:44:39;22.10;99.90
4677;DHT22;2352;48.180;11.478;2023-07-13T01:47:42;22.10;99.90
4677;DHT22;2352;48.180;11.478;2023-07-13T01:50:47;22.10;99.90
4677;DHT22;2352;48.180;11.478;2023-07-13T01:53:51;22.10;99.90
4677;DHT22;2352;48.180;11.478;2023-07-13T01:56:54;22.10;99.90
4677;DHT22;2352;48.180;11.478;2023-07-13T01:59:57;22.10;99.90
4677;DHT22;2352;48.180;11.478;2023-07-13T02:03:00;22.10;99.90
4677;DHT22;2352;48.180;11.478;2023-07-13T02:06:03;22.10;99.90
4677;DHT22;2352;48.180;11.478;2023-07-13T02:09:08;22.20;99.90
4677;DHT22;2352;48.180;11.478;2023-07-13T02:12:11;22.20;99.90
4677;DHT22;2352;48.180;11.478;2023-07-13T02:15:15;22.20;99.90
4677;DHT22;2352;48.180;11.478;2023-07-13T02:18:18;22.20;99.90
4677;DHT22;2352;48.180;11.478;2023-07-13T02:21:22;22.20;99.90
4677;DHT22;2352;48.180;11.478;2023-07-13T02:24:26;22.20;99.90
4677;DHT22;2352;48.180;11.478;2023-07-13T02:27:31;22.20;99.90
4677;DHT22;2352;48.180;11.478;2023-07-13T02:30:34;22.20;99.90
4677;DHT22;2352;48.180;11.478;2023-07-13T02:33:37;22.20;99.90
4677;DHT22;2352;48.180;11.478;2023-07-13T02:36:40;22.20;99.90
4677;DHT22;2352;48.180;11.478;2023-07-13T02:39:45;22.10;99.90
4677;DHT22;2352;48.180;11.478;2023-07-13T02:42:49;22.10;99.90
4677;DHT22;2352;48.180;11.478;2023-07-13T02:45:52;22.00;99.90
4677;DHT22;2352;48.180;11.478;2023-07-13T02:48:55;22.00;99.90
4677;DHT22;2352;48.180;11.478;2023-07-13T02:51:58;21.90;99.90
4677;DHT22;2352;48.180;11.478;2023-07-13T02:55:02;21.90;99.90
4677;DHT22;2352;48.180;11.478;2023-07-13T02:58:05;21.80;99.90
4677;DHT22;2352;48.180;11.478;2023-07-13T03:01:09;21.80;99.90
4677;DHT22;2352;48.180;11.478;2023-07-13T03:04:13;21.90;99.90
4677;DHT22;2352;48.180;11.478;2023-07-13T03:07:16;21.80;99.90
4677;DHT22;2352;48.180;11.478;2023-07-13T03:10:21;21.70;99.90
4677;DHT22;2352;48.180;11.478;2023-07-13T03:13:24;21.70;99.90
4677;DHT22;2352;48.180;11.478;2023-07-13T03:16:26;21.70;99.90
4677;DHT22;2352;48.180;11.478;2023-07-13T03:19:30;21.60;99.90
4677;DHT22;2352;48.180;11.478;2023-07-13T03:22:33;21.50;99.90
4677;DHT22;2352;48.180;11.478;2023-07-13T03:25:37;21.50;99.90
4677;DHT22;2352;48.180;11.478;2023-07-13T03:28:41;21.60;99.90
4677;DHT22;2352;48.180;11.478;2023-07-13T03:31:44;21.60;99.90
4677;DHT22;2352;48.180;11.478;2023-07-13T03:34:47;21.60;99.90
4677;DHT22;2352;48.180;11.478;2023-07-13T03:37:50;21.60;99.90
4677;DHT22;2352;48.180;11.478;2023-07-13T03:40:54;21.60;99.90
4677;DHT22;2352;48.180;11.478;2023-07-13T03:43:57;21.60;99.90
4677;DHT22;2352;48.180;11.478;2023-07-13T03:47:00;21.50;99.90
4677;DHT22;2352;48.180;11.478;2023-07-13T03:50:04;21.50;99.90
4677;DHT22;2352;48.180;11.478;2023-07-13T03:53:07;21.30;99.90
4677;DHT22;2352;48.180;11.478;2023-07-13T03:56:12;21.30;99.90
4677;DHT22;2352;48.180;11.478;2023-07-13T03:59:17;21.20;99.90
4677;DHT22;2352;48.180;11.478;2023-07-13T04:02:20;21.20;99.90
4677;DHT22;2352;48.180;11.478;2023-07-13T04:05:23;21.30;99.90
4677;DHT22;2352;48.180;11.478;2023-07-13T04:08:27;21.30;99.90
4677;DHT22;2352;48.180;11.478;2023-07-13T04:11:32;21.30;99.90
4677;DHT22;2352;48.180;11.478;2023-07-13T04:14:37;21.20;99.90
4677;DHT22;2352;48.180;11.478;2023-07-13T04:17:40;21.20;99.90
4677;DHT22;2352;48.180;11.478;2023-07-13T04:20:43;21.20;99.90
4677;DHT22;2352;48.180;11.478;2023-07-13T04:23:47;21.30;99.90
4677;DHT22;2352;48.180;11.478;2023-07-13T04:26:51;21.30;99.90
4677;DHT22;2352;48.180;11.478;2023-07-13T04:29:54;21.20;99.90
4677;DHT22;2352;48.180;11.478;2023-07-13T04:32:57;21.10;99.90
4677;DHT22;2352;48.180;11.478;2023-07-13T04:36:00;21.10;99.90
4677;DHT22;2352;48.180;11.478;2023-07-13T04:39:03;21.20;99.90
4677;DHT22;2352;48.180;11.478;2023-07-13T04:42:09;21.20;99.90
4677;DHT22;2352;48.180;11.478;2023-07-13T04:45:12;21.20;99.90
4677;DHT22;2352;48.180;11.478;2023-07-13T04:48:16;21.20;99.90
4677;DHT22;2352;48.180;11.478;2023-07-13T04:51:19;21.20;99.90
4677;DHT22;2352;48.180;11.478;2023-07-13T04:54:22;21.10;99.90
4677;DHT22;2352;48.180;11.478;2023-07-13T04:57:26;21.00;99.90
4677;DHT22;2352;48.180;11.478;2023-07-13T05:00:30;21.00;99.90
4677;DHT22;2352;48.180;11.478;2023-07-13T05:03:33;21.00;99.90
4677;DHT22;2352;48.180;11.478;2023-07-13T05:06:36;21.10;99.90
4677;DHT22;2352;48.180;11.478;2023-07-13T05:09:39;21.00;99.90
4677;DHT22;2352;48.180;11.478;2023-07-13T05:12:43;21.00;99.90
4677;DHT22;2352;48.180;11.478;2023-07-13T05:15:47;20.90;99.90
4677;DHT22;2352;48.180;11.478;2023-07-13T05:18:50;21.00;99.90
4677;DHT22;2352;48.180;11.478;2023-07-13T05:21:53;21.00;99.90
4677;DHT22;2352;48.180;11.478;2023-07-13T05:24:56;21.10;99.90
4677;DHT22;2352;48.180;11.478;2023-07-13T05:28:00;21.10;99.90
4677;DHT22;2352;48.180;11.478;2023-07-13T05:31:04;21.10;99.90
4677;DHT22;2352;48.180;11.478;2023-07-13T05:34:07;21.10;99.90
4677;DHT22;2352;48.180;11.478;2023-07-13T05:37:10;21.20;99.90
4677;DHT22;2352;48.180;11.478;2023-07-13T05:40:13;21.20;99.90
4677;DHT22;2352;48.180;11.478;2023-07-13T05:43:17;21.20;99.90
4677;DHT22;2352;48.180;11.478;2023-07-13T05:46:20;21.30;99.90
4677;DHT22;2352;48.180;11.478;2023-07-13T05:49:24;21.30;99.90
4677;DHT22;2352;48.180;11.478;2023-07-13T05:52:27;21.30;99.90
4677;DHT22;2352;48.180;11.478;2023-07-13T05:55:30;21.20;99.90
4677;DHT22;2352;48.180;11.478;2023-07-13T05:58:34;21.30;99.90
4677;DHT22;2352;48.180;11.478;2023-07-13T06:01:37;21.30;99.90
4677;DHT22;2352;48.180;11.478;2023-07-13T06:04:40;21.30;99.90
4677;DHT22;2352;48.180;11.478;2023-07-13T06:07:43;21.40;99.90
4677;DHT22;2352;48.180;11.478;2023-07-13T06:10:46;21.40;99.90
4677;DHT22;2352;48.180;11.478;2023-07-13T06:13:50;21.40;99.90
4677;DHT22;2352;48.180;11.478;2023-07-13T06:16:53;21.40;99.90
4677;DHT22;2352;48.180;11.478;2023-07-13T06:19:56;21.40;99.90
4677;DHT22;2352;48.180;11.478;2023-07-13T06:23:00;21.40;99.90
4677;DHT22;2352;48.180;11.478;2023-07-13T06:26:04;21.40;99.90
4677;DHT22;2352;48.180;11.478;2023-07-13T06:29:09;21.40;99.90
4677;DHT22;2352;48.180;11.478;2023-07-13T06:32:12;21.40;99.90
4677;DHT22;2352;48.180;11.478;2023-07-13T06:35:15;21.50;99.90
4677;DHT22;2352;48.180;11.478;2023-07-13T06:38:18;21.50;99.90
4677;DHT22;2352;48.180;11.478;2023-07-13T06:41:21;21.50;99.90
4677;DHT22;2352;48.180;11.478;2023-07-13T06:44:25;21.50;99.90
4677;DHT22;2352;48.180;11.478;2023-07-13T06:47:28;21.50;99.90
4677;DHT22;2352;48.180;11.478;2023-07-13T06:50:34;21.50;99.90
4677;DHT22;2352;48.180;11.478;2023-07-13T06:53:37;21.50;99.90
4677;DHT22;2352;48.180;11.478;2023-07-13T06:56:40;21.50;99.90
4677;DHT22;2352;48.180;11.478;2023-07-13T06:59:44;21.40;99.90
4677;DHT22;2352;48.180;11.478;2023-07-13T07:02:47;21.60;99.90
4677;DHT22;2352;48.180;11.478;2023-07-13T07:05:50;21.40;99.90
4677;DHT22;2352;48.180;11.478;2023-07-13T07:08:53;21.40;99.90
4677;DHT22;2352;48.180;11.478;2023-07-13T07:11:56;21.30;99.90
4677;DHT22;2352;48.180;11.478;2023-07-13T07:15:07;21.30;99.90
4677;DHT22;2352;48.180;11.478;2023-07-13T07:18:10;21.30;99.90
4677;DHT22;2352;48.180;11.478;2023-07-13T07:21:13;21.40;99.90
4677;DHT22;2352;48.180;11.478;2023-07-13T07:24:16;21.30;99.90
4677;DHT22;2352;48.180;11.478;2023-07-13T07:27:19;21.30;99.90
4677;DHT22;2352;48.180;11.478;2023-07-13T07:30:27;21.40;99.90
4677;DHT22;2352;48.180;11.478;2023-07-13T07:33:33;21.40;99.90
4677;DHT22;2352;48.180;11.478;2023-07-13T07:36:36;21.40;99.90
4677;DHT22;2352;48.180;11.478;2023-07-13T07:39:43;21.50;99.90
4677;DHT22;2352;48.180;11.478;2023-07-13T07:43:06;21.50;99.90
4677;DHT22;2352;48.180;11.478;2023-07-13T07:46:10;21.50;99.90
4677;DHT22;2352;48.180;11.478;2023-07-13T07:49:14;21.60;99.90
4677;DHT22;2352;48.180;11.478;2023-07-13T07:52:17;21.60;99.90
4677;DHT22;2352;48.180;11.478;2023-07-13T07:55:20;21.60;99.90
4677;DHT22;2352;48.180;11.478;2023-07-13T07:58:26;21.50;99.90
4677;DHT22;2352;48.180;11.478;2023-07-13T08:01:33;21.50;99.90
4677;DHT22;2352;48.180;11.478;2023-07-13T08:04:39;21.40;99.90
4677;DHT22;2352;48.180;11.478;2023-07-13T08:08:02;21.40;99.90
4677;DHT22;2352;48.180;11.478;2023-07-13T08:11:05;21.40;99.90
4677;DHT22;2352;48.180;11.478;2023-07-13T08:14:12;21.30;99.90
4677;DHT22;2352;48.180;11.478;2023-07-13T08:17:17;21.30;99.90
4677;DHT22;2352;48.180;11.478;2023-07-13T08:20:20;21.30;99.90
4677;DHT22;2352;48.180;11.478;2023-07-13T08:23:23;21.30;99.90
4677;DHT22;2352;48.180;11.478;2023-07-13T08:26:26;21.30;99.90
4677;DHT22;2352;48.180;11.478;2023-07-13T08:29:29;21.30;99.90
4677;DHT22;2352;48.180;11.478;2023-07-13T08:32:36;21.30;99.90
4677;DHT22;2352;48.180;11.478;2023-07-13T08:35:39;21.30;99.90
4677;DHT22;2352;48.180;11.478;2023-07-13T08:38:42;21.30;99.90
4677;DHT22;2352;48.180;11.478;2023-07-13T08:41:46;21.30;99.90
4677;DHT22;2352;48.180;11.478;2023-07-13T08:44:57;21.30;99.90
4677;DHT22;2352;48.180;11.478;2023-07-13T08:48:05;21.40;99.60
4677;DHT22;2352;48.180;11.478;2023-07-13T08:51:26;21.40;99.90
4677;DHT22;2352;48.180;11.478;2023-07-13T08:54:35;21.50;99.90
4677;DHT22;2352;48.180;11.478;2023-07-13T08:57:41;21.50;99.90
4677;DHT22;2352;48.180;11.478;2023-07-13T09:00:51;21.50;99.90
4677;DHT22;2352;48.180;11.478;2023-07-13T09:04:04;21.50;99.80
4677;DHT22;2352;48.180;11.478;2023-07-13T09:07:16;21.50;99.90
4677;DHT22;2352;48.180;11.478;2023-07-13T09:10:27;21.40;97.80
4677;DHT22;2352;48.180;11.478;2023-07-13T09:13:35;21.40;97.20
4677;DHT22;2352;48.180;11.478;2023-07-13T09:16:40;21.50;99.50
4677;DHT22;2352;48.180;11.478;2023-07-13T09:19:48;21.50;98.90
4677;DHT22;2352;48.180;11.478;2023-07-13T09:22:52;21.50;97.20
4677;DHT22;2352;48.180;11.478;2023-07-13T09:26:00;21.50;98.10
4677;DHT22;2352;48.180;11.478;2023-07-13T09:29:24;21.40;95.20
4677;DHT22;2352;48.180;11.478;2023-07-13T09:32:29;21.40;95.10
4677;DHT22;2352;48.180;11.478;2023-07-13T09:35:36;21.40;97.80
4677;DHT22;2352;48.180;11.478;2023-07-13T09:38:39;21.40;96.00
4677;DHT22;2352;48.180;11.478;2023-07-13T09:41:47;21.40;99.00
4677;DHT22;2352;48.180;11.478;2023-07-13T09:44:53;21.60;98.90
4677;DHT22;2352;48.180;11.478;2023-07-13T09:48:03;21.60;94.30
4677;DHT22;2352;48.180;11.478;2023-07-13T09:51:14;21.50;95.90
4677;DHT22;2352;48.180;11.478;2023-07-13T09:54:20;21.60;96.50
4677;DHT22;2352;48.180;11.478;2023-07-13T09:57:25;21.70;95.90
4677;DHT22;2352;48.180;11.478;2023-07-13T10:00:55;21.60;93.90
4677;DHT22;2352;48.180;11.478;2023-07-13T10:03:59;21.60;95.10
4677;DHT22;2352;48.180;11.478;2023-07-13T10:07:08;21.70;95.30
4677;DHT22;2352;48.180;11.478;2023-07-13T10:10:30;21.70;98.00
4677;DHT22;2352;48.180;11.478;2023-07-13T10:13:41;21.80;97.20
4677;DHT22;2352;48.180;11.478;2023-07-13T10:16:46;21.80;94.70
4677;DHT22;2352;48.180;11.478;2023-07-13T10:19:51;21.80;93.40
4677;DHT22;2352;48.180;11.478;2023-07-13T10:22:59;21.90;94.30
4677;DHT22;2352;48.180;11.478;2023-07-13T10:26:03;22.10;93.90
4677;DHT22;2352;48.180;11.478;2023-07-13T10:29:11;22.20;95.70
4677;DHT22;2352;48.180;11.478;2023-07-13T10:32:19;22.30;93.50
4677;DHT22;2352;48.180;11.478;2023-07-13T10:35:28;22.40;91.90
4677;DHT22;2352;48.180;11.478;2023-07-13T10:38:33;22.60;93.00
4677;DHT22;2352;48.180;11.478;2023-07-13T10:41:39;22.60;91.70
4677;DHT22;2352;48.180;11.478;2023-07-13T10:44:44;22.70;92.40
4677;DHT22;2352;48.180;11.478;2023-07-13T10:47:47;22.80;92.00
4677;DHT22;2352;48.180;11.478;2023-07-13T10:50:53;22.80;89.70
4677;DHT22;2352;48.180;11.478;2023-07-13T10:54:21;22.70;87.60
4677;DHT22;2352;48.180;11.478;2023-07-13T10:57:24;22.80;89.80
4677;DHT22;2352;48.180;11.478;2023-07-13T11:00:31;22.80;87.20
4677;DHT22;2352;48.180;11.478;2023-07-13T11:03:36;22.90;91.20
4677;DHT22;2352;48.180;11.478;2023-07-13T11:06:41;23.00;91.20
4677;DHT22;2352;48.180;11.478;2023-07-13T11:09:50;23.20;88.60
4677;DHT22;2352;48.180;11.478;2023-07-13T11:12:54;23.40;86.30
4677;DHT22;2352;48.180;11.478;2023-07-13T11:15:57;23.40;89.20
4677;DHT22;2352;48.180;11.478;2023-07-13T11:22:47;23.60;83.90
4677;DHT22;2352;48.180;11.478;2023-07-13T11:25:52;23.60;86.80
4677;DHT22;2352;48.180;11.478;2023-07-13T11:28:55;23.70;83.50
4677;DHT22;2352;48.180;11.478;2023-07-13T11:32:00;24.00;86.00
4677;DHT22;2352;48.180;11.478;2023-07-13T11:35:04;24.20;84.90
4677;DHT22;2352;48.180;11.478;2023-07-13T11:38:14;24.20;83.20
4677;DHT22;2352;48.180;11.478;2023-07-13T11:41:23;24.20;85.60
4677;DHT22;2352;48.180;11.478;2023-07-13T11:44:29;24.40;84.00
4677;DHT22;2352;48.180;11.478;2023-07-13T11:47:32;24.50;82.80
4677;DHT22;2352;48.180;11.478;2023-07-13T11:50:35;24.50;78.70
4677;DHT22;2352;48.180;11.478;2023-07-13T11:53:44;24.50;76.10
4677;DHT22;2352;48.180;11.478;2023-07-13T11:56:49;24.50;77.50
4677;DHT22;2352;48.180;11.478;2023-07-13T11:59:54;24.50;76.20
4677;DHT22;2352;48.180;11.478;2023-07-13T12:02:59;24.80;78.40
4677;DHT22;2352;48.180;11.478;2023-07-13T12:06:24;24.90;78.30
4677;DHT22;2352;48.180;11.478;2023-07-13T12:09:31;24.90;75.60
4677;DHT22;2352;48.180;11.478;2023-07-13T12:12:51;24.80;75.60
4677;DHT22;2352;48.180;11.478;2023-07-13T12:15:56;24.90;79.30
4677;DHT22;2352;48.180;11.478;2023-07-13T12:19:00;25.20;78.00
4677;DHT22;2352;48.180;11.478;2023-07-13T12:22:04;25.30;79.40
4677;DHT22;2352;48.180;11.478;2023-07-13T12:25:12;25.30;74.70
4677;DHT22;2352;48.180;11.478;2023-07-13T12:28:22;25.20;75.50
4677;DHT22;2352;48.180;11.478;2023-07-13T12:31:30;25.30;76.20
4677;DHT22;2352;48.180;11.478;2023-07-13T12:34:51;25.30;76.80
4677;DHT22;2352;48.180;11.478;2023-07-13T12:37:54;25.20;75.00
4677;DHT22;2352;48.180;11.478;2023-07-13T12:41:01;25.20;73.00
4677;DHT22;2352;48.180;11.478;2023-07-13T12:44:07;25.10;68.80
4677;DHT22;2352;48.180;11.478;2023-07-13T12:47:14;25.10;69.20
4677;DHT22;2352;48.180;11.478;2023-07-13T12:50:23;25.10;69.10
4677;DHT22;2352;48.180;11.478;2023-07-13T12:53:29;25.30;70.20
4677;DHT22;2352;48.180;11.478;2023-07-13T12:56:35;25.40;67.60
4677;DHT22;2352;48.180;11.478;2023-07-13T12:59:38;25.50;67.10
4677;DHT22;2352;48.180;11.478;2023-07-13T13:02:42;25.60;67.90
4677;DHT22;2352;48.180;11.478;2023-07-13T13:05:45;25.70;69.00
4677;DHT22;2352;48.180;11.478;2023-07-13T13:08:49;25.90;67.30
4677;DHT22;2352;48.180;11.478;2023-07-13T13:11:54;26.00;68.10
4677;DHT22;2352;48.180;11.478;2023-07-13T13:14:57;26.10;65.60
4677;DHT22;2352;48.180;11.478;2023-07-13T13:18:00;26.00;62.50
4677;DHT22;2352;48.180;11.478;2023-07-13T13:21:03;26.10;66.40
4677;DHT22;2352;48.180;11.478;2023-07-13T13:24:11;26.00;63.30
4677;DHT22;2352;48.180;11.478;2023-07-13T13:27:18;25.90;65.60
4677;DHT22;2352;48.180;11.478;2023-07-13T13:30:21;25.80;63.20
4677;DHT22;2352;48.180;11.478;2023-07-13T13:33:24;25.90;65.50
4677;DHT22;2352;48.180;11.478;2023-07-13T13:36:27;25.90;64.50
4677;DHT22;2352;48.180;11.478;2023-07-13T13:39:33;25.80;68.20
4677;DHT22;2352;48.180;11.478;2023-07-13T13:42:38;25.80;68.50
4677;DHT22;2352;48.180;11.478;2023-07-13T13:45:41;25.80;69.40
4677;DHT22;2352;48.180;11.478;2023-07-13T13:48:45;25.70;70.00
4677;DHT22;2352;48.180;11.478;2023-07-13T13:51:48;25.70;67.60
4677;DHT22;2352;48.180;11.478;2023-07-13T13:54:51;25.60;69.80
4677;DHT22;2352;48.180;11.478;2023-07-13T13:57:58;25.70;67.90
4677;DHT22;2352;48.180;11.478;2023-07-13T14:01:02;25.80;68.70
4677;DHT22;2352;48.180;11.478;2023-07-13T14:04:09;25.80;66.30
4677;DHT22;2352;48.180;11.478;2023-07-13T14:07:16;25.90;66.10
4677;DHT22;2352;48.180;11.478;2023-07-13T14:10:20;26.10;65.70
4677;DHT22;2352;48.180;11.478;2023-07-13T14:13:27;26.20;65.60
4677;DHT22;2352;48.180;11.478;2023-07-13T14:16:32;26.10;64.60
4677;DHT22;2352;48.180;11.478;2023-07-13T14:19:35;26.00;62.70
4677;DHT22;2352;48.180;11.478;2023-07-13T14:22:39;26.10;63.60
4677;DHT22;2352;48.180;11.478;2023-07-13T14:25:46;26.30;64.90
4677;DHT22;2352;48.180;11.478;2023-07-13T14:28:52;26.30;63.50
4677;DHT22;2352;48.180;11.478;2023-07-13T14:31:55;26.10;62.30
4677;DHT22;2352;48.180;11.478;2023-07-13T14:34:58;26.20;66.70
4677;DHT22;2352;48.180;11.478;2023-07-13T14:38:01;26.30;65.30
4677;DHT22;2352;48.180;11.478;2023-07-13T14:41:04;26.30;63.20
4677;DHT22;2352;48.180;11.478;2023-07-13T14:44:13;26.20;63.70
4677;DHT22;2352;48.180;11.478;2023-07-13T14:47:16;26.20;62.80
4677;DHT22;2352;48.180;11.478;2023-07-13T14:50:20;26.20;64.90
4677;DHT22;2352;48.180;11.478;2023-07-13T14:53:25;26.20;65.00
4677;DHT22;2352;48.180;11.478;2023-07-13T14:56:29;26.20;65.20
4677;DHT22;2352;48.180;11.478;2023-07-13T14:59:33;26.20;62.00
4677;DHT22;2352;48.180;11.478;2023-07-13T15:02:37;26.20;63.80
4677;DHT22;2352;48.180;11.478;2023-07-13T15:05:41;26.20;64.20
4677;DHT22;2352;48.180;11.478;2023-07-13T15:08:44;26.10;62.80
4677;DHT22;2352;48.180;11.478;2023-07-13T15:11:47;26.20;67.00
4677;DHT22;2352;48.180;11.478;2023-07-13T15:14:51;26.20;62.40
4677;DHT22;2352;48.180;11.478;2023-07-13T15:17:54;26.00;66.10
4677;DHT22;2352;48.180;11.478;2023-07-13T15:20:57;26.00;63.90
4677;DHT22;2352;48.180;11.478;2023-07-13T15:24:04;26.00;63.50
4677;DHT22;2352;48.180;11.478;2023-07-13T15:27:11;26.00;63.70
4677;DHT22;2352;48.180;11.478;2023-07-13T15:30:16;26.00;62.30
4677;DHT22;2352;48.180;11.478;2023-07-13T15:33:23;25.90;62.10
4677;DHT22;2352;48.180;11.478;2023-07-13T15:36:27;25.90;64.40
4677;DHT22;2352;48.180;11.478;2023-07-13T15:39:33;25.90;65.70
4677;DHT22;2352;48.180;11.478;2023-07-13T15:42:37;25.90;67.10
4677;DHT22;2352;48.180;11.478;2023-07-13T15:45:44;26.00;64.00
4677;DHT22;2352;48.180;11.478;2023-07-13T15:48:48;25.90;61.30
4677;DHT22;2352;48.180;11.478;2023-07-13T15:51:51;25.80;62.30
4677;DHT22;2352;48.180;11.478;2023-07-13T15:54:55;25.90;65.40
4677;DHT22;2352;48.180;11.478;2023-07-13T15:57:58;25.80;61.40
4677;DHT22;2352;48.180;11.478;2023-07-13T16:01:03;25.70;63.60
4677;DHT22;2352;48.180;11.478;2023-07-13T16:04:06;25.70;62.10
4677;DHT22;2352;48.180;11.478;2023-07-13T16:07:10;25.60;65.50
4677;DHT22;2352;48.180;11.478;2023-07-13T16:10:15;25.50;66.10
4677;DHT22;2352;48.180;11.478;2023-07-13T16:13:20;25.50;69.10
4677;DHT22;2352;48.180;11.478;2023-07-13T16:16:27;25.40;67.20
4677;DHT22;2352;48.180;11.478;2023-07-13T16:19:31;25.50;68.90
4677;DHT22;2352;48.180;11.478;2023-07-13T16:22:35;25.60;65.20
4677;DHT22;2352;48.180;11.478;2023-07-13T16:25:39;25.60;66.70
4677;DHT22;2352;48.180;11.478;2023-07-13T16:28:43;25.60;65.80
4677;DHT22;2352;48.180;11.478;2023-07-13T16:32:02;25.60;66.30
4677;DHT22;2352;48.180;11.478;2023-07-13T16:35:07;25.60;67.20
4677;DHT22;2352;48.180;11.478;2023-07-13T16:38:15;25.60;64.80
4677;DHT22;2352;48.180;11.478;2023-07-13T16:41:18;25.60;66.00
4677;DHT22;2352;48.180;11.478;2023-07-13T16:44:22;25.60;63.90
4677;DHT22;2352;48.180;11.478;2023-07-13T16:47:26;25.60;67.50
4677;DHT22;2352;48.180;11.478;2023-07-13T16:50:31;25.50;63.70
4677;DHT22;2352;48.180;11.478;2023-07-13T16:53:35;25.50;66.50
4677;DHT22;2352;48.180;11.478;2023-07-13T16:56:38;25.50;65.50
4677;DHT22;2352;48.180;11.478;2023-07-13T16:59:41;25.50;67.10
4677;DHT22;2352;48.180;11.478;2023-07-13T17:02:46;25.50;66.90
4677;DHT22;2352;48.180;11.478;2023-07-13T17:05:49;25.50;65.10
4677;DHT22;2352;48.180;11.478;2023-07-13T17:08:53;25.30;67.20
4677;DHT22;2352;48.180;11.478;2023-07-13T17:11:57;25.30;68.80
4677;DHT22;2352;48.180;11.478;2023-07-13T17:15:01;25.30;64.40
4677;DHT22;2352;48.180;11.478;2023-07-13T17:18:10;25.20;62.90
4677;DHT22;2352;48.180;11.478;2023-07-13T17:21:16;25.20;67.50
4677;DHT22;2352;48.180;11.478;2023-07-13T17:24:21;25.30;66.40
4677;DHT22;2352;48.180;11.478;2023-07-13T17:27:26;25.20;64.30
4677;DHT22;2352;48.180;11.478;2023-07-13T17:30:29;25.20;66.50
4677;DHT22;2352;48.180;11.478;2023-07-13T17:33:36;25.20;65.50
4677;DHT22;2352;48.180;11.478;2023-07-13T17:36:41;25.20;70.70
4677;DHT22;2352;48.180;11.478;2023-07-13T17:39:44;25.20;67.60
4677;DHT22;2352;48.180;11.478;2023-07-13T17:42:48;25.20;65.80
4677;DHT22;2352;48.180;11.478;2023-07-13T17:45:54;25.10;65.50
4677;DHT22;2352;48.180;11.478;2023-07-13T17:49:00;25.20;66.00
4677;DHT22;2352;48.180;11.478;2023-07-13T17:52:04;25.20;70.40
4677;DHT22;2352;48.180;11.478;2023-07-13T17:55:13;25.10;70.00
4677;DHT22;2352;48.180;11.478;2023-07-13T17:58:16;25.10;69.50
4677;DHT22;2352;48.180;11.478;2023-07-13T18:01:21;25.00;69.30
4677;DHT22;2352;48.180;11.478;2023-07-13T18:04:26;25.00;65.40
4677;DHT22;2352;48.180;11.478;2023-07-13T18:07:29;24.90;70.90
4677;DHT22;2352;48.180;11.478;2023-07-13T18:10:33;25.00;68.00
4677;DHT22;2352;48.180;11.478;2023-07-13T18:13:36;24.90;71.50
4677;DHT22;2352;48.180;11.478;2023-07-13T18:16:46;24.90;72.40
4677;DHT22;2352;48.180;11.478;2023-07-13T18:19:53;24.90;71.40
4677;DHT22;2352;48.180;11.478;2023-07-13T18:22:57;24.80;69.30
4677;DHT22;2352;48.180;11.478;2023-07-13T18:26:00;24.80;70.60
4677;DHT22;2352;48.180;11.478;2023-07-13T18:29:03;24.80;72.60
4677;DHT22;2352;48.180;11.478;2023-07-13T18:32:09;24.80;73.60
4677;DHT22;2352;48.180;11.478;2023-07-13T18:35:24;24.70;73.70
4677;DHT22;2352;48.180;11.478;2023-07-13T18:38:29;24.80;74.00
4677;DHT22;2352;48.180;11.478;2023-07-13T18:41:33;24.70;73.60
4677;DHT22;2352;48.180;11.478;2023-07-13T18:44:40;24.70;76.60
4677;DHT22;2352;48.180;11.478;2023-07-13T18:47:44;24.60;75.90
4677;DHT22;2352;48.180;11.478;2023-07-13T18:50:49;24.60;76.20
4677;DHT22;2352;48.180;11.478;2023-07-13T18:53:53;24.60;76.60
4677;DHT22;2352;48.180;11.478;2023-07-13T18:56:56;24.50;74.20
4677;DHT22;2352;48.180;11.478;2023-07-13T18:59:59;24.60;72.80
4677;DHT22;2352;48.180;11.478;2023-07-13T19:03:02;24.50;77.70
4677;DHT22;2352;48.180;11.478;2023-07-13T19:06:08;24.50;75.40
4677;DHT22;2352;48.180;11.478;2023-07-13T19:09:13;24.50;78.10
4677;DHT22;2352;48.180;11.478;2023-07-13T19:12:17;24.40;78.00
4677;DHT22;2352;48.180;11.478;2023-07-13T19:15:25;24.40;78.20
4677;DHT22;2352;48.180;11.478;2023-07-13T19:18:31;24.40;78.70
4677;DHT22;2352;48.180;11.478;2023-07-13T19:21:36;24.30;78.80
4677;DHT22;2352;48.180;11.478;2023-07-13T19:24:40;24.30;79.70
4677;DHT22;2352;48.180;11.478;2023-07-13T19:27:43;24.30;79.20
4677;DHT22;2352;48.180;11.478;2023-07-13T19:30:46;24.30;79.70
4677;DHT22;2352;48.180;11.478;2023-07-13T19:33:50;24.20;80.40
4677;DHT22;2352;48.180;11.478;2023-07-13T19:36:57;24.20;81.00
4677;DHT22;2352;48.180;11.478;2023-07-13T19:40:02;24.10;81.00
4677;DHT22;2352;48.180;11.478;2023-07-13T19:43:10;24.10;81.40
4677;DHT22;2352;48.180;11.478;2023-07-13T19:46:20;24.10;81.10
4677;DHT22;2352;48.180;11.478;2023-07-13T19:49:25;24.10;81.90
4677;DHT22;2352;48.180;11.478;2023-07-13T19:52:31;24.00;82.50
4677;DHT22;2352;48.180;11.478;2023-07-13T19:55:34;24.00;83.20